• Join FlightAware (Why Join?)
  • Login
  • US Flag 
11:39AM EDT


 

Airport Tracker/Info


-or-


 

Live Flight TrackerFlight Track Log ✈ UAL1480 ✈ 12-May-2012 ✈ KEWR - TIST / STT

Flight Track Log - Related Links

Times and Time Zones

All times are in EDT time to prevent confusion due to time zone crossing. See the UAL1480 flight status page for this flight to view local times or setup timezone preferences in your user account.

Time Position Orientation Groundspeed Altitude Reporting Facility
EDT Latitude Longitude Course Direction KTS MPH feet Rate Location/Type
09:41AM 40.6272 -74.2041 22° Northeast  Level FlightAware Approximate
09:41AM 40.6667 -74.1833 179° South 166 191 1,200  Level New York TRACON
09:46AM 40.3458 -74.1778 172° South 287 330 6,000 1,200 Climbing New York Center
09:47AM 40.2669 -74.1631 181° South 282 325 8,300 2,820 Climbing New York Center
09:48AM 40.1794 -74.1642 158° South 301 346 11,600 2,700 Climbing New York Center
09:49AM 40.0911 -74.1164 107° East 322 371 13,800 2,340 Climbing New York Center
09:50AM 40.0614 -73.9928 92° East 319 367 16,300 2,400 Climbing New York Center
09:51AM 40.0583 -73.8681 108° East 348 400 18,600 2,280 Climbing New York Center
09:52AM 40.0225 -73.7281 113° Southeast 371 427 21,000 2,100 Climbing New York Center
09:53AM 39.9778 -73.5936 145° Southeast 389 448 22,900 900 Climbing New York Center
09:54AM 39.8758 -73.5000 147° Southeast 406 467 22,900 300 Level New York Center
09:55AM 39.7736 -73.4122 145° Southeast 421 484 23,600 1,320 Climbing New York Center
09:56AM 39.6736 -73.3222 147° Southeast 434 499 25,600 1,800 Climbing New York Center
09:57AM 39.5669 -73.2322 144° Southeast 445 512 27,300 1,560 Climbing New York Center
09:58AM 39.4647 -73.1344 147° Southeast 457 526 28,800 1,020 Climbing New York Center
09:59AM 39.3481 -73.0367 145° Southeast 476 548 29,400 900 Climbing New York Center
10:00AM 39.2292 -72.9281 147° Southeast 502 578 30,700 1,380 Climbing New York Center
10:01AM 39.1119 -72.8308 146° Southeast 513 590 32,200 1,500 Climbing New York Center
10:02AM 38.9928 -72.7286 146° Southeast 513 590 33,700 840 Climbing New York Center
10:03AM 38.8736 -72.6239 147° Southeast 521 600 34,000 120 Climbing New York Center
10:04AM 38.7542 -72.5250 145° Southeast 521 600 34,000 480 Level New York Center
10:05AM 38.6347 -72.4183 146° Southeast 516 594 35,000 480 Climbing New York Center
10:06AM 38.5153 -72.3147 147° Southeast 516 594 35,000 -60 Level New York Center
10:07AM 38.3956 -72.2142 148° Southeast 516 594 34,900  Descending New York Center
10:08AM 38.2739 -72.1192 146° Southeast 522 601 35,000  Climbing New York Center
10:09AM 38.1519 -72.0164 144° Southeast 522 601 35,000  Level New York Center
10:10AM 38.0342 -71.9089 146° Southeast 522 601 35,000  Level New York Center
10:11AM 37.9119 -71.8042 148° Southeast 517 595 35,000  Level New York Center
10:12AM 37.7897 -71.7078 147° Southeast 522 601 35,000  Level New York Center
10:13AM 37.6675 -71.6092 144° Southeast 522 601 35,000  Level New York Center
10:14AM 37.5472 -71.4978 148° Southeast 522 601 35,000 -60 Level New York Center
10:15AM 37.4208 -71.3969 159° South 528 608 34,900  Descending New York Center
10:16AM 37.3167 -71.3464 334° Northwest 471 542 35,000 60 Climbing New York Center
10:16AM 37.4833 -71.4500 155° Southeast 525 604 35,000 -120 Level New York Oceanic (ODAPS)
10:17AM 37.1522 -71.2564 153° Southeast 526 605 34,900 -60 Descending New York Center
10:18AM 37.0317 -71.1803 155° Southeast 509 586 34,900  Level New York Center
10:31AM 35.7667 -70.4500 168° South 509 586 35,000  Climbing New York Oceanic (ODAPS)
11:06AM 30.9000 -69.2333 168° South 492 566 35,000  Level New York Oceanic (ODAPS)
11:50AM 25.4667 -68.0000 169° South 455 524 35,000  Level New York Oceanic (ODAPS)
11:59AM 23.4000 -67.5667 168° South 460 529 35,000  Level San Juan Center
12:04PM 22.7500 -67.4167 172° South 460 529 35,000  Level San Juan Center
12:05PM 22.6333 -67.4000 167° South 460 529 35,000  Level San Juan Center
12:06PM 22.5000 -67.3667 172° South 450 518 35,000  Level San Juan Center
12:07PM 22.3833 -67.3500 167° South 450 518 35,000  Level San Juan Center
12:08PM 22.2500 -67.3167 180° South 460 529 35,000  Level San Juan Center
12:09PM 22.1333 -67.3167 360° North 460 529 35,000  Level San Juan Center
12:10PM 22.2333 -67.3167 191° South 390 449 35,000  Level New York Oceanic (ODAPS)
12:13PM 21.7500 -67.4167 188° South 450 518 35,000  Level San Juan Center
12:14PM 21.6333 -67.4333 187° South 450 518 35,000  Level San Juan Center
12:15PM 21.5000 -67.4500 165° South 450 518 35,000  Level San Juan Center
12:16PM 21.3833 -67.4167 146° Southeast 460 529 35,000  Level San Juan Center
12:17PM 21.2667 -67.3333 137° Southeast 480 552 35,000  Level San Juan Center
12:18PM 21.1833 -67.2500 133° Southeast 470 541 35,000  Level San Juan Center
12:19PM 21.0833 -67.1333 137° Southeast 470 541 35,000  Level San Juan Center
12:20PM 20.9833 -67.0333 163° South 470 541 35,000  Level San Juan Center
12:21PM 20.8833 -67.0000 155° Southeast 450 518 35,000  Level San Juan Center
12:22PM 20.7500 -66.9333 142° Southeast 460 529 35,000  Level San Juan Center
12:23PM 20.6500 -66.8500 146° Southeast 470 541 35,000  Level San Juan Center
12:24PM 20.5333 -66.7667 142° Southeast 470 541 35,000  Level San Juan Center
12:25PM 20.4333 -66.6833 142° Southeast 460 529 35,000  Level San Juan Center
12:26PM 20.3333 -66.6000 146° Southeast 470 541 35,000  Level San Juan Center
12:27PM 20.2167 -66.5167 148° Southeast 470 541 35,000  Level San Juan Center
12:28PM 20.1167 -66.4500 146° Southeast 470 541 35,000 -60 Level San Juan Center
12:29PM 20.0000 -66.3667 142° Southeast 470 541 34,900 -300 Descending San Juan Center
12:30PM 19.9000 -66.2833 142° Southeast 460 529 34,500 -780 Descending San Juan Center
12:31PM 19.8000 -66.2000 146° Southeast 470 541 33,400 -1,020 Descending San Juan Center
12:32PM 19.6833 -66.1167 142° Southeast 470 541 32,500 -1,080 Descending San Juan Center
12:33PM 19.5833 -66.0333 148° Southeast 470 541 31,300 -1,920 Descending San Juan Center
12:34PM 19.4833 -65.9667 146° Southeast 460 529 28,700 -2,580 Descending San Juan Center
12:35PM 19.3667 -65.8833 148° Southeast 450 518 26,200 -2,400 Descending San Juan Center
12:36PM 19.2667 -65.8167 137° Southeast 440 506 23,900 -2,400 Descending San Juan Center
12:37PM 19.1833 -65.7333 148° Southeast 420 483 21,400 -2,400 Descending San Juan Center
12:38PM 19.0833 -65.6667 148° Southeast 400 460 19,200 -2,160 Descending San Juan Center
12:39PM 18.9833 -65.6000 143° Southeast 380 437 17,100 -2,100 Descending San Juan Center
12:40PM 18.9000 -65.5333 171° South 380 437 15,000 -1,980 Descending San Juan Center
12:41PM 18.8000 -65.5167 169° South 360 414 13,200 -1,260 Descending San Juan Center
12:42PM 18.7167 -65.5000 169° South 310 357 12,500 -1,080 Descending San Juan Center
12:43PM 18.6333 -65.4833 159° South 300 345 11,100 -1,440 Descending San Juan Center
12:44PM 18.5500 -65.4500 169° South 290 334 9,600 -1,560 Descending San Juan Center
12:45PM 18.4667 -65.4333 167° South 280 322 8,000 -1,140 Descending San Juan Center
12:46PM 18.4000 -65.4167 180° South 260 299 7,400 -660 Descending San Juan Center
12:47PM 18.3500 -65.4167 125° Southeast 210 242 6,700 -900 Descending San Juan Center
12:48PM 18.3167 -65.3667 90° East 210 242 5,600 -1,200 Descending San Juan Center
12:49PM 18.3167 -65.3167 90° East 190 219 4,400 -1,200 Descending San Juan Center
12:50PM 18.3167 -65.2667 90° East 180 207 3,300 -840 Descending San Juan Center
12:51PM 18.3167 -65.2167 90° East 190 219 2,800 -300 Descending San Juan Center
12:52PM 18.3167 -65.1500 90° East 180 207 2,800 -300 Level San Juan Center
12:53PM 18.3167 -65.1000 71° East 190 219 2,200 -720 Descending San Juan Center
12:54PM 18.3333 -65.0500 71° East 150 173 1,400 -840 Descending San Juan Center